Terminal Aerodrome Forecast
Issued by NWS Wilmington, OH

Current Version | Previous Version | Text Only | Print | Product List | Glossary Off
Versions: 1 2 3 4 5 6 7 8 9 10 11 12 13 14 15 16 17 18 19 20 21

000
FTUS41 KILN 171138
TAFCMH
TAF
KCMH 171138Z 1712/1812 19010G18KT P6SM VCSH OVC015
      TEMPO 1712/1716 5SM -SHRA OVC009
     FM171800 23014KT P6SM OVC012
     FM172000 25014G22KT P6SM OVC025
     FM180000 26011G18KT P6SM OVC015
     FM180400 26010KT P6SM OVC008=

USA.gov is the U.S. government's official web portal to all federal, state and local government web resources and services.